»·PEaware :: N5055J KSBD-L08

N5055J :: KSBD-L08

FLIGHT INFORMATION

Flight Status: Arrived
Operator: Privately registered:
United States
More flights under this callsign
Pilot: Scott M. (16181)
Aircraft: Unknown
(X-EF)
More flights by this aircraft type
Origin: KSBD San Bernardino Intl
United States
Destination: L08 Borrego Valley
United States
More flights between these airports :: More routes between these airports
Route:
File this flight plan on PilotEdge
Remarks:
Altitude:
(Current/Filed)
5,500ft
Speed:
(Current/Filed)
100kts
Departed: 08-Aug-18 04:37 PM
Arrived: 08-Aug-18 05:35 PM
Distance/Time
Traveled:
68nm/0:58
Distance/Time
To Go:
Arrived

Flight Plot

Page will automatically refresh every two minutes.


Map Options




Map Legend


Flown Route
Filed Route
Departure Airport
Arrival Airport
Navaid (VOR, NDB)
Fix

Horizontal Profiles

Position Reports

Time Latitude Longitude Heading Altitude Ground
Speed
08-Aug-18 16:28 34.102166 -117.224730 94 1145ft 0kts
08-Aug-18 16:29 34.102166 -117.224730 94 1145ft 0kts
08-Aug-18 16:30 34.102166 -117.224730 94 1145ft 0kts
08-Aug-18 16:31 34.102166 -117.224730 94 1145ft 0kts
08-Aug-18 16:32 34.102166 -117.224730 94 1145ft 0kts
08-Aug-18 16:33 34.101040 -117.224949 198 1145ft 7kts
08-Aug-18 16:34 34.100239 -117.226911 247 1138ft 5kts
08-Aug-18 16:35 34.100534 -117.223452 68 1148ft 17kts
08-Aug-18 16:36 34.100799 -117.219741 162 1159ft 1kts
08-Aug-18 16:37 34.100792 -117.219739 164 1159ft 0kts
08-Aug-18 16:38 34.098325 -117.224460 250 1321ft 56kts
08-Aug-18 16:39 34.089036 -117.228062 126 2459ft 75kts
08-Aug-18 16:40 34.075174 -117.211046 147 3464ft 78kts
08-Aug-18 16:41 34.056890 -117.198448 152 4435ft 79kts
08-Aug-18 16:42 34.039359 -117.181242 141 5263ft 85kts
08-Aug-18 16:43 34.018320 -117.162179 145 5564ft 89kts
08-Aug-18 16:44 33.998064 -117.146733 148 5445ft 87kts
08-Aug-18 16:45 33.980976 -117.126991 134 5628ft 85kts
08-Aug-18 16:46 33.963516 -117.107287 135 5811ft 87kts
08-Aug-18 16:47 33.944889 -117.088488 139 5861ft 89kts
08-Aug-18 16:48 33.926023 -117.069624 136 5801ft 88kts
08-Aug-18 16:49 33.907389 -117.050841 138 5744ft 88kts
08-Aug-18 16:50 33.891297 -117.031145 131 5697ft 87kts
08-Aug-18 16:51 33.873425 -117.011247 133 5763ft 88kts
08-Aug-18 16:52 33.854830 -116.991208 133 5910ft 89kts
08-Aug-18 16:53 33.839561 -116.968795 125 6133ft 86kts
08-Aug-18 16:54 33.826037 -116.945166 122 6174ft 87kts
08-Aug-18 16:55 33.808683 -116.925401 146 6246ft 87kts
08-Aug-18 16:56 33.791610 -116.910379 138 6263ft 74kts
08-Aug-18 16:57 33.776390 -116.894040 141 6126ft 72kts
08-Aug-18 16:58 33.758997 -116.882632 146 5793ft 73kts
08-Aug-18 16:59 33.741340 -116.869984 145 5657ft 74kts
08-Aug-18 17:00 33.724857 -116.855616 138 5575ft 73kts
08-Aug-18 17:01 33.709301 -116.839897 145 5554ft 73kts
08-Aug-18 17:02 33.692584 -116.825912 142 5534ft 73kts
08-Aug-18 17:03 33.676277 -116.811595 146 5533ft 72kts
08-Aug-18 17:04 33.660233 -116.797080 138 5527ft 72kts
08-Aug-18 17:05 33.644656 -116.781666 137 5531ft 72kts
08-Aug-18 17:06 33.630210 -116.764932 134 5555ft 72kts
08-Aug-18 17:07 33.616267 -116.747615 134 5573ft 72kts
08-Aug-18 17:08 33.602312 -116.730237 132 5558ft 72kts
08-Aug-18 17:09 33.588621 -116.712361 131 5525ft 72kts
08-Aug-18 17:10 33.575539 -116.693879 128 5487ft 73kts
08-Aug-18 17:11 33.560247 -116.677506 136 5475ft 73kts
08-Aug-18 17:12 33.546333 -116.659741 131 5459ft 72kts
08-Aug-18 17:13 33.532375 -116.642092 129 5439ft 73kts
08-Aug-18 17:14 33.518486 -116.624629 129 5475ft 71kts
08-Aug-18 17:15 33.505913 -116.606021 126 5537ft 71kts
08-Aug-18 17:16 33.493638 -116.587079 123 5584ft 71kts
08-Aug-18 17:17 33.479882 -116.569641 131 5582ft 72kts
08-Aug-18 17:18 33.465832 -116.552509 128 5463ft 71kts
08-Aug-18 17:19 33.451960 -116.535482 134 5460ft 71kts
08-Aug-18 17:20 33.439333 -116.517805 147 5484ft 71kts
08-Aug-18 17:21 33.424681 -116.501834 131 5396ft 72kts
08-Aug-18 17:22 33.410619 -116.485054 136 5199ft 71kts
08-Aug-18 17:23 33.398096 -116.467491 120 4926ft 69kts
08-Aug-18 17:24 33.386828 -116.449560 127 4557ft 72kts
08-Aug-18 17:25 33.374310 -116.430737 137 4124ft 72kts
08-Aug-18 17:26 33.357953 -116.417413 148 3583ft 71kts
08-Aug-18 17:27 33.341380 -116.404505 143 2957ft 72kts
08-Aug-18 17:28 33.326809 -116.390409 142 2320ft 65kts
08-Aug-18 17:29 33.312752 -116.376969 143 1847ft 64kts
08-Aug-18 17:30 33.299072 -116.364293 144 1513ft 60kts
08-Aug-18 17:31 33.285707 -116.352466 143 1397ft 59kts
08-Aug-18 17:32 33.273118 -116.340925 135 1429ft 59kts
08-Aug-18 17:33 33.272397 -116.321104 91 1400ft 63kts
08-Aug-18 17:34 33.272982 -116.301153 129 1299ft 57kts
08-Aug-18 17:35 33.261472 -116.298053 199 1214ft 55kts
08-Aug-18 17:36 33.258920 -116.323805 268 518ft 39kts
08-Aug-18 17:37 33.257724 -116.326112 158 518ft 6kts
08-Aug-18 17:38 33.257726 -116.325606 172 519ft 0kts

Navigation Log

Ident Type
1. KSBD Airport
2. L08 Airport